sensor_id;sensor_type;location;lat;lon;timestamp;P1;P2;P0
47081;PMS5003;33066;49.296;14.470;2023-07-29T00:00:35;4;3;
47081;PMS5003;33066;49.296;14.470;2023-07-29T00:03:01;3;3;
47081;PMS5003;33066;49.296;14.470;2023-07-29T00:05:27;6;6;
47081;PMS5003;33066;49.296;14.470;2023-07-29T00:07:52;4;4;
47081;PMS5003;33066;49.296;14.470;2023-07-29T00:10:18;6;6;
47081;PMS5003;33066;49.296;14.470;2023-07-29T00:12:44;6;6;
47081;PMS5003;33066;49.296;14.470;2023-07-29T00:15:10;9;9;
47081;PMS5003;33066;49.296;14.470;2023-07-29T00:17:36;5;5;
47081;PMS5003;33066;49.296;14.470;2023-07-29T00:20:02;6;6;
47081;PMS5003;33066;49.296;14.470;2023-07-29T00:22:27;5;5;
47081;PMS5003;33066;49.296;14.470;2023-07-29T00:24:53;6;6;
47081;PMS5003;33066;49.296;14.470;2023-07-29T00:27:19;4;4;
47081;PMS5003;33066;49.296;14.470;2023-07-29T00:29:45;7;7;
47081;PMS5003;33066;49.296;14.470;2023-07-29T00:32:11;5;5;
47081;PMS5003;33066;49.296;14.470;2023-07-29T00:34:36;7;6;
47081;PMS5003;33066;49.296;14.470;2023-07-29T00:37:02;4;4;
47081;PMS5003;33066;49.296;14.470;2023-07-29T00:39:28;5;5;
47081;PMS5003;33066;49.296;14.470;2023-07-29T00:41:54;2;2;
47081;PMS5003;33066;49.296;14.470;2023-07-29T00:44:20;5;5;
47081;PMS5003;33066;49.296;14.470;2023-07-29T00:46:45;5;4;
47081;PMS5003;33066;49.296;14.470;2023-07-29T00:49:11;4;4;
47081;PMS5003;33066;49.296;14.470;2023-07-29T00:51:37;7;7;
47081;PMS5003;33066;49.296;14.470;2023-07-29T00:54:02;5;5;
47081;PMS5003;33066;49.296;14.470;2023-07-29T00:56:28;6;6;
47081;PMS5003;33066;49.296;14.470;2023-07-29T00:58:54;8;6;
47081;PMS5003;33066;49.296;14.470;2023-07-29T01:01:20;8;7;
47081;PMS5003;33066;49.296;14.470;2023-07-29T01:03:46;8;6;
47081;PMS5003;33066;49.296;14.470;2023-07-29T01:06:13;7;7;
47081;PMS5003;33066;49.296;14.470;2023-07-29T01:08:38;7;6;
47081;PMS5003;33066;49.296;14.470;2023-07-29T01:11:06;6;6;
47081;PMS5003;33066;49.296;14.470;2023-07-29T01:13:31;5;4;
47081;PMS5003;33066;49.296;14.470;2023-07-29T01:15:55;6;6;
47081;PMS5003;33066;49.296;14.470;2023-07-29T01:18:22;4;4;
47081;PMS5003;33066;49.296;14.470;2023-07-29T01:20:46;5;5;
47081;PMS5003;33066;49.296;14.470;2023-07-29T01:23:12;6;6;
47081;PMS5003;33066;49.296;14.470;2023-07-29T01:25:38;4;4;
47081;PMS5003;33066;49.296;14.470;2023-07-29T01:28:04;6;5;
47081;PMS5003;33066;49.296;14.470;2023-07-29T01:30:30;10;10;
47081;PMS5003;33066;49.296;14.470;2023-07-29T01:32:56;9;6;
47081;PMS5003;33066;49.296;14.470;2023-07-29T01:35:22;6;6;
47081;PMS5003;33066;49.296;14.470;2023-07-29T01:37:48;7;7;
47081;PMS5003;33066;49.296;14.470;2023-07-29T01:40:13;5;5;
47081;PMS5003;33066;49.296;14.470;2023-07-29T01:42:39;5;5;
47081;PMS5003;33066;49.296;14.470;2023-07-29T01:45:05;3;3;
47081;PMS5003;33066;49.296;14.470;2023-07-29T01:47:30;6;5;
47081;PMS5003;33066;49.296;14.470;2023-07-29T01:49:56;7;6;
47081;PMS5003;33066;49.296;14.470;2023-07-29T01:52:22;7;7;
47081;PMS5003;33066;49.296;14.470;2023-07-29T01:54:48;5;5;
47081;PMS5003;33066;49.296;14.470;2023-07-29T01:57:13;4;4;
47081;PMS5003;33066;49.296;14.470;2023-07-29T01:59:39;6;6;
47081;PMS5003;33066;49.296;14.470;2023-07-29T02:02:05;4;4;
47081;PMS5003;33066;49.296;14.470;2023-07-29T02:04:31;8;7;
47081;PMS5003;33066;49.296;14.470;2023-07-29T02:06:57;7;7;
47081;PMS5003;33066;49.296;14.470;2023-07-29T02:09:23;5;5;
47081;PMS5003;33066;49.296;14.470;2023-07-29T02:11:48;7;6;
47081;PMS5003;33066;49.296;14.470;2023-07-29T02:14:14;8;7;
47081;PMS5003;33066;49.296;14.470;2023-07-29T02:16:40;10;6;
47081;PMS5003;33066;49.296;14.470;2023-07-29T02:19:06;7;6;
47081;PMS5003;33066;49.296;14.470;2023-07-29T02:21:32;5;5;
47081;PMS5003;33066;49.296;14.470;2023-07-29T02:23:57;7;6;
47081;PMS5003;33066;49.296;14.470;2023-07-29T02:26:23;5;5;
47081;PMS5003;33066;49.296;14.470;2023-07-29T02:28:49;6;6;
47081;PMS5003;33066;49.296;14.470;2023-07-29T02:31:16;6;6;
47081;PMS5003;33066;49.296;14.470;2023-07-29T02:33:41;5;4;
47081;PMS5003;33066;49.296;14.470;2023-07-29T02:36:06;5;5;
47081;PMS5003;33066;49.296;14.470;2023-07-29T02:38:32;5;5;
47081;PMS5003;33066;49.296;14.470;2023-07-29T02:40:58;6;6;
47081;PMS5003;33066;49.296;14.470;2023-07-29T02:43:24;9;9;
47081;PMS5003;33066;49.296;14.470;2023-07-29T02:45:49;6;4;
47081;PMS5003;33066;49.296;14.470;2023-07-29T02:48:15;9;7;
47081;PMS5003;33066;49.296;14.470;2023-07-29T02:50:41;3;3;
47081;PMS5003;33066;49.296;14.470;2023-07-29T02:53:07;5;5;
47081;PMS5003;33066;49.296;14.470;2023-07-29T02:55:32;7;6;
47081;PMS5003;33066;49.296;14.470;2023-07-29T02:57:58;5;5;
47081;PMS5003;33066;49.296;14.470;2023-07-29T03:00:24;8;5;
47081;PMS5003;33066;49.296;14.470;2023-07-29T03:02:50;7;7;
47081;PMS5003;33066;49.296;14.470;2023-07-29T03:05:16;5;5;
47081;PMS5003;33066;49.296;14.470;2023-07-29T03:07:42;6;5;
47081;PMS5003;33066;49.296;14.470;2023-07-29T03:13:00;5;4;
47081;PMS5003;33066;49.296;14.470;2023-07-29T03:15:25;6;6;
47081;PMS5003;33066;49.296;14.470;2023-07-29T03:17:50;13;10;
47081;PMS5003;33066;49.296;14.470;2023-07-29T03:20:16;10;10;
47081;PMS5003;33066;49.296;14.470;2023-07-29T03:22:41;5;5;
47081;PMS5003;33066;49.296;14.470;2023-07-29T03:25:07;15;15;
47081;PMS5003;33066;49.296;14.470;2023-07-29T03:27:33;5;5;
47081;PMS5003;33066;49.296;14.470;2023-07-29T03:29:59;6;6;
47081;PMS5003;33066;49.296;14.470;2023-07-29T03:32:25;5;5;
47081;PMS5003;33066;49.296;14.470;2023-07-29T03:34:50;5;5;
47081;PMS5003;33066;49.296;14.470;2023-07-29T03:37:16;5;5;
47081;PMS5003;33066;49.296;14.470;2023-07-29T03:39:42;5;5;
47081;PMS5003;33066;49.296;14.470;2023-07-29T03:42:08;6;5;
47081;PMS5003;33066;49.296;14.470;2023-07-29T03:44:34;5;5;
47081;PMS5003;33066;49.296;14.470;2023-07-29T03:47:00;5;5;
47081;PMS5003;33066;49.296;14.470;2023-07-29T03:49:25;24;22;
47081;PMS5003;33066;49.296;14.470;2023-07-29T03:51:51;94;72;
47081;PMS5003;33066;49.296;14.470;2023-07-29T03:54:16;69;62;
47081;PMS5003;33066;49.296;14.470;2023-07-29T03:56:41;27;25;
47081;PMS5003;33066;49.296;14.470;2023-07-29T03:59:07;8;7;
47081;PMS5003;33066;49.296;14.470;2023-07-29T04:01:33;5;4;
47081;PMS5003;33066;49.296;14.470;2023-07-29T04:03:58;29;25;
47081;PMS5003;33066;49.296;14.470;2023-07-29T04:06:24;25;24;
47081;PMS5003;33066;49.296;14.470;2023-07-29T04:08:50;20;19;
47081;PMS5003;33066;49.296;14.470;2023-07-29T04:11:15;14;14;
47081;PMS5003;33066;49.296;14.470;2023-07-29T04:13:40;8;8;
47081;PMS5003;33066;49.296;14.470;2023-07-29T04:16:06;7;6;
47081;PMS5003;33066;49.296;14.470;2023-07-29T04:18:32;6;5;
47081;PMS5003;33066;49.296;14.470;2023-07-29T04:20:58;3;3;
47081;PMS5003;33066;49.296;14.470;2023-07-29T04:23:24;12;9;
47081;PMS5003;33066;49.296;14.470;2023-07-29T04:25:50;7;6;
47081;PMS5003;33066;49.296;14.470;2023-07-29T04:28:16;7;5;
47081;PMS5003;33066;49.296;14.470;2023-07-29T04:30:41;7;6;
47081;PMS5003;33066;49.296;14.470;2023-07-29T04:33:07;6;6;
47081;PMS5003;33066;49.296;14.470;2023-07-29T04:35:33;2;2;
47081;PMS5003;33066;49.296;14.470;2023-07-29T04:37:59;5;4;
47081;PMS5003;33066;49.296;14.470;2023-07-29T04:40:24;8;8;
47081;PMS5003;33066;49.296;14.470;2023-07-29T04:42:50;3;3;
47081;PMS5003;33066;49.296;14.470;2023-07-29T04:45:15;3;3;
47081;PMS5003;33066;49.296;14.470;2023-07-29T04:50:07;4;4;
47081;PMS5003;33066;49.296;14.470;2023-07-29T04:52:32;5;5;
47081;PMS5003;33066;49.296;14.470;2023-07-29T04:54:57;3;2;
47081;PMS5003;33066;49.296;14.470;2023-07-29T04:57:22;4;4;
47081;PMS5003;33066;49.296;14.470;2023-07-29T04:59:47;4;4;
47081;PMS5003;33066;49.296;14.470;2023-07-29T05:02:12;3;3;
47081;PMS5003;33066;49.296;14.470;2023-07-29T05:04:37;5;5;
47081;PMS5003;33066;49.296;14.470;2023-07-29T05:07:02;3;3;
47081;PMS5003;33066;49.296;14.470;2023-07-29T05:09:27;4;3;
47081;PMS5003;33066;49.296;14.470;2023-07-29T05:11:52;7;5;
47081;PMS5003;33066;49.296;14.470;2023-07-29T05:14:17;4;4;
47081;PMS5003;33066;49.296;14.470;2023-07-29T05:16:42;7;4;
47081;PMS5003;33066;49.296;14.470;2023-07-29T05:19:07;4;3;
47081;PMS5003;33066;49.296;14.470;2023-07-29T05:21:32;3;3;
47081;PMS5003;33066;49.296;14.470;2023-07-29T05:23:57;3;3;
47081;PMS5003;33066;49.296;14.470;2023-07-29T05:26:23;5;5;
47081;PMS5003;33066;49.296;14.470;2023-07-29T05:28:47;3;2;
47081;PMS5003;33066;49.296;14.470;2023-07-29T05:31:12;3;3;
47081;PMS5003;33066;49.296;14.470;2023-07-29T05:33:38;2;2;
47081;PMS5003;33066;49.296;14.470;2023-07-29T05:36:04;2;2;
47081;PMS5003;33066;49.296;14.470;2023-07-29T05:38:30;5;3;
47081;PMS5003;33066;49.296;14.470;2023-07-29T05:40:56;3;3;
47081;PMS5003;33066;49.296;14.470;2023-07-29T05:43:21;1;1;
47081;PMS5003;33066;49.296;14.470;2023-07-29T05:45:47;2;1;
47081;PMS5003;33066;49.296;14.470;2023-07-29T05:48:13;1;1;
47081;PMS5003;33066;49.296;14.470;2023-07-29T05:50:38;4;4;
47081;PMS5003;33066;49.296;14.470;2023-07-29T05:53:03;7;5;
47081;PMS5003;33066;49.296;14.470;2023-07-29T05:55:29;4;4;
47081;PMS5003;33066;49.296;14.470;2023-07-29T05:57:55;6;5;
47081;PMS5003;33066;49.296;14.470;2023-07-29T06:00:21;3;3;
47081;PMS5003;33066;49.296;14.470;2023-07-29T06:02:47;3;3;
47081;PMS5003;33066;49.296;14.470;2023-07-29T06:05:12;3;2;
47081;PMS5003;33066;49.296;14.470;2023-07-29T06:07:38;3;3;
47081;PMS5003;33066;49.296;14.470;2023-07-29T06:10:04;3;3;
47081;PMS5003;33066;49.296;14.470;2023-07-29T06:12:30;4;2;
47081;PMS5003;33066;49.296;14.470;2023-07-29T06:14:56;4;4;
47081;PMS5003;33066;49.296;14.470;2023-07-29T06:17:21;2;2;
47081;PMS5003;33066;49.296;14.470;2023-07-29T06:19:47;1;1;
47081;PMS5003;33066;49.296;14.470;2023-07-29T06:22:12;3;3;
47081;PMS5003;33066;49.296;14.470;2023-07-29T06:24:39;3;3;
47081;PMS5003;33066;49.296;14.470;2023-07-29T06:27:05;4;1;
47081;PMS5003;33066;49.296;14.470;2023-07-29T06:29:30;3;3;
47081;PMS5003;33066;49.296;14.470;2023-07-29T06:31:56;3;3;
47081;PMS5003;33066;49.296;14.470;2023-07-29T06:34:22;3;2;
47081;PMS5003;33066;49.296;14.470;2023-07-29T06:36:48;4;4;
47081;PMS5003;33066;49.296;14.470;2023-07-29T06:39:13;2;2;
47081;PMS5003;33066;49.296;14.470;2023-07-29T06:41:39;1;1;
47081;PMS5003;33066;49.296;14.470;2023-07-29T06:44:05;1;1;
47081;PMS5003;33066;49.296;14.470;2023-07-29T06:46:31;5;4;
47081;PMS5003;33066;49.296;14.470;2023-07-29T06:48:57;2;2;
47081;PMS5003;33066;49.296;14.470;2023-07-29T06:51:23;3;3;
47081;PMS5003;33066;49.296;14.470;2023-07-29T06:53:49;2;2;
47081;PMS5003;33066;49.296;14.470;2023-07-29T06:56:15;1;1;
47081;PMS5003;33066;49.296;14.470;2023-07-29T06:58:40;2;2;
47081;PMS5003;33066;49.296;14.470;2023-07-29T07:01:06;3;2;
47081;PMS5003;33066;49.296;14.470;2023-07-29T07:03:32;4;2;
47081;PMS5003;33066;49.296;14.470;2023-07-29T07:05:58;2;2;
47081;PMS5003;33066;49.296;14.470;2023-07-29T07:08:24;2;2;
47081;PMS5003;33066;49.296;14.470;2023-07-29T07:10:49;3;1;
47081;PMS5003;33066;49.296;14.470;2023-07-29T07:13:15;2;2;
47081;PMS5003;33066;49.296;14.470;2023-07-29T07:15:41;0;0;
47081;PMS5003;33066;49.296;14.470;2023-07-29T07:18:07;2;2;
47081;PMS5003;33066;49.296;14.470;2023-07-29T07:20:33;4;2;
47081;PMS5003;33066;49.296;14.470;2023-07-29T07:22:59;2;2;
47081;PMS5003;33066;49.296;14.470;2023-07-29T07:25:24;1;1;
47081;PMS5003;33066;49.296;14.470;2023-07-29T07:27:50;2;2;
47081;PMS5003;33066;49.296;14.470;2023-07-29T07:30:16;2;2;
47081;PMS5003;33066;49.296;14.470;2023-07-29T07:32:42;2;2;
47081;PMS5003;33066;49.296;14.470;2023-07-29T07:35:08;1;1;
47081;PMS5003;33066;49.296;14.470;2023-07-29T07:37:33;7;7;
47081;PMS5003;33066;49.296;14.470;2023-07-29T07:39:59;1;1;
47081;PMS5003;33066;49.296;14.470;2023-07-29T07:42:25;1;1;
47081;PMS5003;33066;49.296;14.470;2023-07-29T07:44:50;1;1;
47081;PMS5003;33066;49.296;14.470;2023-07-29T07:47:16;0;0;
47081;PMS5003;33066;49.296;14.470;2023-07-29T07:49:42;1;1;
47081;PMS5003;33066;49.296;14.470;2023-07-29T07:52:08;1;1;
47081;PMS5003;33066;49.296;14.470;2023-07-29T07:54:34;1;1;
47081;PMS5003;33066;49.296;14.470;2023-07-29T07:56:59;3;3;
47081;PMS5003;33066;49.296;14.470;2023-07-29T07:59:25;2;2;
47081;PMS5003;33066;49.296;14.470;2023-07-29T08:01:51;1;1;
47081;PMS5003;33066;49.296;14.470;2023-07-29T08:04:17;2;2;
47081;PMS5003;33066;49.296;14.470;2023-07-29T08:06:43;2;2;
47081;PMS5003;33066;49.296;14.470;2023-07-29T08:09:09;2;1;
47081;PMS5003;33066;49.296;14.470;2023-07-29T08:11:34;2;2;
47081;PMS5003;33066;49.296;14.470;2023-07-29T08:14:00;0;0;
47081;PMS5003;33066;49.296;14.470;2023-07-29T08:16:26;1;1;
47081;PMS5003;33066;49.296;14.470;2023-07-29T08:18:52;2;2;
47081;PMS5003;33066;49.296;14.470;2023-07-29T08:21:17;1;1;
47081;PMS5003;33066;49.296;14.470;2023-07-29T08:23:43;1;1;
47081;PMS5003;33066;49.296;14.470;2023-07-29T08:26:09;2;2;
47081;PMS5003;33066;49.296;14.470;2023-07-29T08:28:36;7;7;
47081;PMS5003;33066;49.296;14.470;2023-07-29T08:31:01;1;1;
47081;PMS5003;33066;49.296;14.470;2023-07-29T08:33:26;2;2;
47081;PMS5003;33066;49.296;14.470;2023-07-29T08:35:52;3;3;
47081;PMS5003;33066;49.296;14.470;2023-07-29T08:38:18;3;2;
47081;PMS5003;33066;49.296;14.470;2023-07-29T08:43:09;1;1;
47081;PMS5003;33066;49.296;14.470;2023-07-29T08:45:35;1;1;
47081;PMS5003;33066;49.296;14.470;2023-07-29T08:48:01;1;1;
47081;PMS5003;33066;49.296;14.470;2023-07-29T08:50:26;3;2;
47081;PMS5003;33066;49.296;14.470;2023-07-29T08:52:52;8;4;
47081;PMS5003;33066;49.296;14.470;2023-07-29T08:55:18;5;5;
47081;PMS5003;33066;49.296;14.470;2023-07-29T08:57:44;3;3;
47081;PMS5003;33066;49.296;14.470;2023-07-29T09:00:10;2;2;
47081;PMS5003;33066;49.296;14.470;2023-07-29T09:02:35;3;3;
47081;PMS5003;33066;49.296;14.470;2023-07-29T09:05:01;3;3;
47081;PMS5003;33066;49.296;14.470;2023-07-29T09:07:27;1;1;
47081;PMS5003;33066;49.296;14.470;2023-07-29T09:09:53;2;2;
47081;PMS5003;33066;49.296;14.470;2023-07-29T09:12:18;2;2;
47081;PMS5003;33066;49.296;14.470;2023-07-29T09:14:44;1;1;
47081;PMS5003;33066;49.296;14.470;2023-07-29T09:17:10;4;1;
47081;PMS5003;33066;49.296;14.470;2023-07-29T09:19:35;1;1;
47081;PMS5003;33066;49.296;14.470;2023-07-29T09:22:01;2;2;
47081;PMS5003;33066;49.296;14.470;2023-07-29T09:24:27;8;8;
47081;PMS5003;33066;49.296;14.470;2023-07-29T09:26:53;13;10;
47081;PMS5003;33066;49.296;14.470;2023-07-29T09:29:21;10;10;
47081;PMS5003;33066;49.296;14.470;2023-07-29T09:31:44;8;6;
47081;PMS5003;33066;49.296;14.470;2023-07-29T09:34:10;5;5;
47081;PMS5003;33066;49.296;14.470;2023-07-29T09:36:36;5;5;
47081;PMS5003;33066;49.296;14.470;2023-07-29T09:39:01;4;4;
47081;PMS5003;33066;49.296;14.470;2023-07-29T09:41:28;5;5;
47081;PMS5003;33066;49.296;14.470;2023-07-29T09:43:55;5;5;
47081;PMS5003;33066;49.296;14.470;2023-07-29T09:46:19;3;3;
47081;PMS5003;33066;49.296;14.470;2023-07-29T09:48:44;2;2;
47081;PMS5003;33066;49.296;14.470;2023-07-29T09:51:11;1;1;
47081;PMS5003;33066;49.296;14.470;2023-07-29T09:53:39;5;4;
47081;PMS5003;33066;49.296;14.470;2023-07-29T09:56:02;2;2;
47081;PMS5003;33066;49.296;14.470;2023-07-29T09:58:28;1;1;
47081;PMS5003;33066;49.296;14.470;2023-07-29T10:00:53;1;1;
47081;PMS5003;33066;49.296;14.470;2023-07-29T10:03:20;3;1;
47081;PMS5003;33066;49.296;14.470;2023-07-29T10:05:45;4;4;
47081;PMS5003;33066;49.296;14.470;2023-07-29T10:08:11;2;2;
47081;PMS5003;33066;49.296;14.470;2023-07-29T10:10:36;2;2;
47081;PMS5003;33066;49.296;14.470;2023-07-29T10:13:02;10;8;
47081;PMS5003;33066;49.296;14.470;2023-07-29T10:15:28;1;0;
47081;PMS5003;33066;49.296;14.470;2023-07-29T10:17:54;2;2;
47081;PMS5003;33066;49.296;14.470;2023-07-29T10:20:19;2;1;
47081;PMS5003;33066;49.296;14.470;2023-07-29T10:22:46;1;1;
47081;PMS5003;33066;49.296;14.470;2023-07-29T10:25:13;5;5;
47081;PMS5003;33066;49.296;14.470;2023-07-29T10:27:40;8;4;
47081;PMS5003;33066;49.296;14.470;2023-07-29T10:30:02;1;1;
47081;PMS5003;33066;49.296;14.470;2023-07-29T10:32:28;1;1;
47081;PMS5003;33066;49.296;14.470;2023-07-29T10:34:54;1;1;
47081;PMS5003;33066;49.296;14.470;2023-07-29T10:37:20;6;5;
47081;PMS5003;33066;49.296;14.470;2023-07-29T10:42:11;3;1;
47081;PMS5003;33066;49.296;14.470;2023-07-29T10:49:28;4;4;
47081;PMS5003;33066;49.296;14.470;2023-07-29T10:51:54;2;1;
47081;PMS5003;33066;49.296;14.470;2023-07-29T10:54:20;4;2;
47081;PMS5003;33066;49.296;14.470;2023-07-29T10:56:47;3;3;
47081;PMS5003;33066;49.296;14.470;2023-07-29T11:01:38;5;3;
47081;PMS5003;33066;49.296;14.470;2023-07-29T11:06:29;2;2;
47081;PMS5003;33066;49.296;14.470;2023-07-29T11:08:54;2;1;
47081;PMS5003;33066;49.296;14.470;2023-07-29T11:11:19;6;4;
47081;PMS5003;33066;49.296;14.470;2023-07-29T11:13:44;3;3;
47081;PMS5003;33066;49.296;14.470;2023-07-29T11:16:09;4;4;
47081;PMS5003;33066;49.296;14.470;2023-07-29T11:18:35;9;6;
47081;PMS5003;33066;49.296;14.470;2023-07-29T11:21:00;0;0;
47081;PMS5003;33066;49.296;14.470;2023-07-29T11:23:28;1;1;
47081;PMS5003;33066;49.296;14.470;2023-07-29T11:25:49;1;1;
47081;PMS5003;33066;49.296;14.470;2023-07-29T11:28:14;1;1;
47081;PMS5003;33066;49.296;14.470;2023-07-29T11:30:41;0;0;
47081;PMS5003;33066;49.296;14.470;2023-07-29T11:33:06;1;1;
47081;PMS5003;33066;49.296;14.470;2023-07-29T11:35:32;1;1;
47081;PMS5003;33066;49.296;14.470;2023-07-29T11:37:58;1;1;
47081;PMS5003;33066;49.296;14.470;2023-07-29T11:40:24;1;1;
47081;PMS5003;33066;49.296;14.470;2023-07-29T11:42:51;1;1;
47081;PMS5003;33066;49.296;14.470;2023-07-29T11:45:16;1;1;
47081;PMS5003;33066;49.296;14.470;2023-07-29T11:47:41;0;0;
47081;PMS5003;33066;49.296;14.470;2023-07-29T11:50:08;1;1;
47081;PMS5003;33066;49.296;14.470;2023-07-29T11:52:33;0;0;
47081;PMS5003;33066;49.296;14.470;2023-07-29T11:54:59;1;1;
47081;PMS5003;33066;49.296;14.470;2023-07-29T11:57:24;0;0;
47081;PMS5003;33066;49.296;14.470;2023-07-29T11:59:50;0;0;
47081;PMS5003;33066;49.296;14.470;2023-07-29T12:02:16;0;0;
47081;PMS5003;33066;49.296;14.470;2023-07-29T12:04:42;2;2;
47081;PMS5003;33066;49.296;14.470;2023-07-29T12:07:08;22;19;
47081;PMS5003;33066;49.296;14.470;2023-07-29T12:09:33;7;6;
47081;PMS5003;33066;49.296;14.470;2023-07-29T12:11:59;5;3;
47081;PMS5003;33066;49.296;14.470;2023-07-29T12:14:25;6;4;
47081;PMS5003;33066;49.296;14.470;2023-07-29T12:16:51;5;4;
47081;PMS5003;33066;49.296;14.470;2023-07-29T12:19:17;1;1;
47081;PMS5003;33066;49.296;14.470;2023-07-29T12:21:42;3;2;
47081;PMS5003;33066;49.296;14.470;2023-07-29T12:24:08;5;4;
47081;PMS5003;33066;49.296;14.470;2023-07-29T12:26:35;4;2;
47081;PMS5003;33066;49.296;14.470;2023-07-29T12:29:10;6;5;
47081;PMS5003;33066;49.296;14.470;2023-07-29T12:31:30;5;4;
47081;PMS5003;33066;49.296;14.470;2023-07-29T12:33:55;2;2;
47081;PMS5003;33066;49.296;14.470;2023-07-29T12:36:17;5;3;
47081;PMS5003;33066;49.296;14.470;2023-07-29T12:38:43;3;2;
47081;PMS5003;33066;49.296;14.470;2023-07-29T12:41:08;2;2;
47081;PMS5003;33066;49.296;14.470;2023-07-29T12:43:34;7;6;
47081;PMS5003;33066;49.296;14.470;2023-07-29T12:46:00;4;4;
47081;PMS5003;33066;49.296;14.470;2023-07-29T12:48:26;10;10;
47081;PMS5003;33066;49.296;14.470;2023-07-29T12:50:52;9;7;
47081;PMS5003;33066;49.296;14.470;2023-07-29T12:53:17;2;2;
47081;PMS5003;33066;49.296;14.470;2023-07-29T12:55:43;3;3;
47081;PMS5003;33066;49.296;14.470;2023-07-29T12:58:09;2;2;
47081;PMS5003;33066;49.296;14.470;2023-07-29T13:00:34;1;0;
47081;PMS5003;33066;49.296;14.470;2023-07-29T13:03:00;3;3;
47081;PMS5003;33066;49.296;14.470;2023-07-29T13:05:26;2;2;
47081;PMS5003;33066;49.296;14.470;2023-07-29T13:07:51;3;3;
47081;PMS5003;33066;49.296;14.470;2023-07-29T13:10:17;2;2;
47081;PMS5003;33066;49.296;14.470;2023-07-29T13:12:43;2;2;
47081;PMS5003;33066;49.296;14.470;2023-07-29T13:15:09;4;4;
47081;PMS5003;33066;49.296;14.470;2023-07-29T13:17:35;3;3;
47081;PMS5003;33066;49.296;14.470;2023-07-29T13:20:00;4;2;
47081;PMS5003;33066;49.296;14.470;2023-07-29T13:22:26;4;2;
47081;PMS5003;33066;49.296;14.470;2023-07-29T13:24:52;2;1;
47081;PMS5003;33066;49.296;14.470;2023-07-29T13:27:17;0;0;
47081;PMS5003;33066;49.296;14.470;2023-07-29T13:29:43;7;2;
47081;PMS5003;33066;49.296;14.470;2023-07-29T13:32:09;5;4;
47081;PMS5003;33066;49.296;14.470;2023-07-29T13:34:35;1;1;
47081;PMS5003;33066;49.296;14.470;2023-07-29T13:37:00;2;1;
47081;PMS5003;33066;49.296;14.470;2023-07-29T13:39:26;1;1;
47081;PMS5003;33066;49.296;14.470;2023-07-29T13:41:52;0;0;
47081;PMS5003;33066;49.296;14.470;2023-07-29T13:44:17;2;2;
47081;PMS5003;33066;49.296;14.470;2023-07-29T13:46:43;11;11;
47081;PMS5003;33066;49.296;14.470;2023-07-29T13:49:09;9;9;
47081;PMS5003;33066;49.296;14.470;2023-07-29T13:51:34;4;4;
47081;PMS5003;33066;49.296;14.470;2023-07-29T13:54:00;5;2;
47081;PMS5003;33066;49.296;14.470;2023-07-29T13:56:26;1;1;
47081;PMS5003;33066;49.296;14.470;2023-07-29T13:58:51;2;2;
47081;PMS5003;33066;49.296;14.470;2023-07-29T14:01:17;1;1;
47081;PMS5003;33066;49.296;14.470;2023-07-29T14:03:43;0;0;
47081;PMS5003;33066;49.296;14.470;2023-07-29T14:06:09;4;4;
47081;PMS5003;33066;49.296;14.470;2023-07-29T14:08:34;3;2;
47081;PMS5003;33066;49.296;14.470;2023-07-29T14:11:00;0;0;
47081;PMS5003;33066;49.296;14.470;2023-07-29T14:13:26;3;3;
47081;PMS5003;33066;49.296;14.470;2023-07-29T14:15:51;2;2;
47081;PMS5003;33066;49.296;14.470;2023-07-29T14:18:17;3;3;
47081;PMS5003;33066;49.296;14.470;2023-07-29T14:20:43;2;2;
47081;PMS5003;33066;49.296;14.470;2023-07-29T14:23:08;2;2;
47081;PMS5003;33066;49.296;14.470;2023-07-29T14:25:34;1;1;
47081;PMS5003;33066;49.296;14.470;2023-07-29T14:28:00;2;2;
47081;PMS5003;33066;49.296;14.470;2023-07-29T14:30:26;2;2;
47081;PMS5003;33066;49.296;14.470;2023-07-29T14:32:51;7;7;
47081;PMS5003;33066;49.296;14.470;2023-07-29T14:35:16;8;7;
47081;PMS5003;33066;49.296;14.470;2023-07-29T14:37:41;2;2;
47081;PMS5003;33066;49.296;14.470;2023-07-29T14:40:07;3;3;
47081;PMS5003;33066;49.296;14.470;2023-07-29T14:42:33;3;3;
47081;PMS5003;33066;49.296;14.470;2023-07-29T14:44:58;5;3;
47081;PMS5003;33066;49.296;14.470;2023-07-29T14:47:24;4;3;
47081;PMS5003;33066;49.296;14.470;2023-07-29T14:49:50;4;3;
47081;PMS5003;33066;49.296;14.470;2023-07-29T14:52:16;3;1;
47081;PMS5003;33066;49.296;14.470;2023-07-29T14:54:41;3;2;
47081;PMS5003;33066;49.296;14.470;2023-07-29T14:57:07;4;3;
47081;PMS5003;33066;49.296;14.470;2023-07-29T14:59:33;3;3;
47081;PMS5003;33066;49.296;14.470;2023-07-29T15:01:58;1;1;
47081;PMS5003;33066;49.296;14.470;2023-07-29T15:04:24;3;3;
47081;PMS5003;33066;49.296;14.470;2023-07-29T15:06:50;3;1;
47081;PMS5003;33066;49.296;14.470;2023-07-29T15:09:15;3;3;
47081;PMS5003;33066;49.296;14.470;2023-07-29T15:11:41;2;2;
47081;PMS5003;33066;49.296;14.470;2023-07-29T15:14:07;2;2;
47081;PMS5003;33066;49.296;14.470;2023-07-29T15:16:32;4;4;
47081;PMS5003;33066;49.296;14.470;2023-07-29T15:18:58;6;6;
47081;PMS5003;33066;49.296;14.470;2023-07-29T15:21:24;5;5;
47081;PMS5003;33066;49.296;14.470;2023-07-29T15:23:49;3;3;
47081;PMS5003;33066;49.296;14.470;2023-07-29T15:26:15;6;5;
47081;PMS5003;33066;49.296;14.470;2023-07-29T15:28:41;4;4;
47081;PMS5003;33066;49.296;14.470;2023-07-29T15:31:06;2;2;
47081;PMS5003;33066;49.296;14.470;2023-07-29T15:33:32;4;4;
47081;PMS5003;33066;49.296;14.470;2023-07-29T15:35:58;3;2;
47081;PMS5003;33066;49.296;14.470;2023-07-29T15:38:23;5;4;
47081;PMS5003;33066;49.296;14.470;2023-07-29T15:40:49;4;1;
47081;PMS5003;33066;49.296;14.470;2023-07-29T15:43:15;3;3;
47081;PMS5003;33066;49.296;14.470;2023-07-29T15:45:41;4;4;
47081;PMS5003;33066;49.296;14.470;2023-07-29T15:48:06;11;8;
47081;PMS5003;33066;49.296;14.470;2023-07-29T15:50:32;2;2;
47081;PMS5003;33066;49.296;14.470;2023-07-29T15:52:57;2;2;
47081;PMS5003;33066;49.296;14.470;2023-07-29T15:55:23;5;3;
47081;PMS5003;33066;49.296;14.470;2023-07-29T15:57:49;5;5;
47081;PMS5003;33066;49.296;14.470;2023-07-29T16:00:14;3;3;
47081;PMS5003;33066;49.296;14.470;2023-07-29T16:02:40;3;3;
47081;PMS5003;33066;49.296;14.470;2023-07-29T16:05:06;4;3;
47081;PMS5003;33066;49.296;14.470;2023-07-29T16:07:31;2;2;
47081;PMS5003;33066;49.296;14.470;2023-07-29T16:09:57;1;1;
47081;PMS5003;33066;49.296;14.470;2023-07-29T16:12:22;5;3;
47081;PMS5003;33066;49.296;14.470;2023-07-29T16:14:48;2;2;
47081;PMS5003;33066;49.296;14.470;2023-07-29T16:17:14;1;1;
47081;PMS5003;33066;49.296;14.470;2023-07-29T16:22:05;2;2;
47081;PMS5003;33066;49.296;14.470;2023-07-29T16:24:31;7;5;
47081;PMS5003;33066;49.296;14.470;2023-07-29T16:26:56;1;1;
47081;PMS5003;33066;49.296;14.470;2023-07-29T16:29:22;2;2;
47081;PMS5003;33066;49.296;14.470;2023-07-29T16:31:48;7;6;
47081;PMS5003;33066;49.296;14.470;2023-07-29T16:34:13;4;4;
47081;PMS5003;33066;49.296;14.470;2023-07-29T16:36:39;2;2;
47081;PMS5003;33066;49.296;14.470;2023-07-29T16:39:05;2;2;
47081;PMS5003;33066;49.296;14.470;2023-07-29T16:41:30;6;5;
47081;PMS5003;33066;49.296;14.470;2023-07-29T16:43:56;2;2;